Abeytas, New Mexico
Current Conditions -  °F | °C
As of 6:35 PM on Thursday 30 Oct 2014 (Local Time) from KE80 Reporting Station
Clear Clear  
Wind Chill: 66°   Ceiling: Unl
Heat Index: 66°   Visibility: 10mi
Dew Point: 21°   Wind: 3mph
Humidity: 18%   Direction: 30°NNE
Pressure: 30.25"   Gusts: NA
Location:  34.4828°N, 106.804°W
Report Text: KE80 310035Z AUTO 03003KT 10SM CLR 19/M06 A3025 RMK AO2 T01911062
Loading
Personal Weather Stations






























Interactive Weather Map New forecast layout! Learn more

10-Day Weather Forecast

Advertisements
Track Severe Weather on mobile